Time;durP1;ratioP1;P1;durP2;ratioP2;P2;SDS_P1;SDS_P2;PMS_P1;PMS_P2;Temp;Humidity;BMP_temperature;BMP_pressure;BME280_temperature;BME280_humidity;BME280_pressure;Samples;Min_cycle;Max_cycle;Signal;HPM_P1;HPM_P2
2021/10/04 00:00:17;;;;;;;0.40;0.20;;;12.40;99.90;;;;;;4992279;28;20386;-73
2021/10/04 00:02:43;;;;;;;0.40;0.20;;;12.40;99.90;;;;;;4991422;28;20493;-73
2021/10/04 00:05:10;;;;;;;0.40;0.20;;;12.40;99.90;;;;;;4992151;28;20382;-73
2021/10/04 00:07:36;;;;;;;0.40;0.20;;;12.80;99.90;;;;;;4991418;28;20383;-73
2021/10/04 00:10:13;;;;;;;0.40;0.20;;;12.50;99.90;;;;;;4991997;28;20375;-73
2021/10/04 00:12:40;;;;;;;0.40;0.20;;;12.50;99.90;;;;;;4991411;28;20398;-73
2021/10/04 00:15:09;;;;;;;0.40;0.20;;;12.70;99.90;;;;;;4992065;28;20532;-73
2021/10/04 00:17:36;;;;;;;0.40;0.20;;;13.30;99.90;;;;;;4991324;28;20381;-73
2021/10/04 00:20:06;;;;;;;0.40;0.20;;;12.60;99.90;;;;;;4991799;28;20414;-73
2021/10/04 00:22:32;;;;;;;0.40;0.30;;;12.40;99.90;;;;;;4991009;28;20410;-73
2021/10/04 00:24:58;;;;;;;0.40;0.30;;;12.40;99.90;;;;;;4991654;28;20402;-73
2021/10/04 00:27:23;;;;;;;0.40;0.30;;;12.90;99.90;;;;;;4990669;28;20421;-74
2021/10/04 00:29:49;;;;;;;0.40;0.20;;;12.40;99.90;;;;;;4991672;28;20855;-73
2021/10/04 00:32:15;;;;;;;0.40;0.30;;;12.40;99.90;;;;;;4991825;28;20407;-73
2021/10/04 00:34:40;;;;;;;0.40;0.20;;;12.80;99.90;;;;;;4990955;28;20387;-73
2021/10/04 00:37:06;;;;;;;0.40;0.20;;;12.30;99.90;;;;;;4991634;28;20379;-73
2021/10/04 00:39:32;;;;;;;0.40;0.20;;;12.40;99.90;;;;;;4990979;28;20413;-74
2021/10/04 00:41:59;;;;;;;0.40;0.30;;;12.50;99.90;;;;;;4990583;28;20403;-73
2021/10/04 00:44:25;;;;;;;0.40;0.30;;;12.40;99.90;;;;;;4989588;28;20465;-74
2021/10/04 00:46:51;;;;;;;0.40;0.20;;;12.40;99.90;;;;;;4972137;28;20392;-73
2021/10/04 00:49:16;;;;;;;0.40;0.20;;;12.70;99.90;;;;;;4971874;28;20400;-73
2021/10/04 00:51:42;;;;;;;0.40;0.20;;;13.30;99.90;;;;;;4971508;28;20388;-73
2021/10/04 00:54:08;;;;;;;0.40;0.30;;;12.40;99.90;;;;;;4971773;28;20753;-73
2021/10/04 00:56:35;;;;;;;0.40;0.20;;;12.50;99.90;;;;;;4971661;28;20399;-73
2021/10/04 00:59:01;;;;;;;0.40;0.20;;;13.10;99.90;;;;;;4972062;28;20904;-73
2021/10/04 01:01:28;;;;;;;0.40;0.20;;;12.90;99.90;;;;;;4971244;28;20404;-73
2021/10/04 01:03:59;;;;;;;0.40;0.30;;;12.60;99.90;;;;;;4971938;28;20402;-73
2021/10/04 01:06:26;;;;;;;0.40;0.20;;;12.70;99.90;;;;;;4971869;28;20391;-73
2021/10/04 01:08:52;;;;;;;0.40;0.20;;;12.20;99.90;;;;;;4971914;28;20380;-72
2021/10/04 01:11:18;;;;;;;0.40;0.20;;;12.50;99.90;;;;;;4971784;28;20452;-72
2021/10/04 01:13:44;;;;;;;0.40;0.20;;;12.60;99.90;;;;;;4971606;28;20475;-72
2021/10/04 01:16:10;;;;;;;0.40;0.30;;;12.50;99.90;;;;;;4971974;28;20463;-72
2021/10/04 01:18:35;;;;;;;0.40;0.20;;;12.50;99.90;;;;;;4971133;28;20391;-73
2021/10/04 01:21:02;;;;;;;0.60;0.60;;;12.70;99.90;;;;;;4971871;28;20869;-73
2021/10/04 01:23:28;;;;;;;0.40;0.20;;;12.30;99.90;;;;;;4971260;28;20416;-74
2021/10/04 01:25:55;;;;;;;0.40;0.20;;;12.50;99.90;;;;;;4971635;28;20744;-72
2021/10/04 01:28:22;;;;;;;0.40;0.20;;;12.20;99.90;;;;;;4971514;28;20466;-73
2021/10/04 01:30:47;;;;;;;0.40;0.20;;;12.00;99.90;;;;;;4971177;28;20451;-73
2021/10/04 01:33:13;;;;;;;0.40;0.20;;;12.10;99.90;;;;;;4971786;28;20423;-73
2021/10/04 01:35:39;;;;;;;0.40;0.28;;;12.00;99.90;;;;;;4970921;28;20428;-73
2021/10/04 01:38:05;;;;;;;0.40;0.20;;;12.10;99.90;;;;;;4971639;28;20850;-73
2021/10/04 01:40:31;;;;;;;0.40;0.30;;;12.00;99.90;;;;;;4971121;28;20816;-73
2021/10/04 01:42:56;;;;;;;0.40;0.20;;;12.00;99.90;;;;;;4971558;28;20415;-73
2021/10/04 01:45:24;;;;;;;0.40;0.20;;;12.30;99.90;;;;;;4980710;28;20402;-73
2021/10/04 01:47:52;;;;;;;0.40;0.20;;;12.10;99.90;;;;;;4990321;28;20379;-73
2021/10/04 01:50:19;;;;;;;0.40;0.20;;;12.00;99.90;;;;;;4991076;28;20406;-73
2021/10/04 01:52:46;;;;;;;0.40;0.20;;;12.10;99.90;;;;;;4992219;28;20383;-74
2021/10/04 01:55:13;;;;;;;0.40;0.20;;;11.90;99.90;;;;;;4994301;28;20398;-74
2021/10/04 01:57:40;;;;;;;0.40;0.30;;;11.90;99.90;;;;;;4993728;28;20474;-74
2021/10/04 02:00:08;;;;;;;0.40;0.30;;;11.90;99.90;;;;;;4994260;28;20391;-74
2021/10/04 02:02:34;;;;;;;0.40;0.30;;;11.90;99.90;;;;;;4993524;28;20442;-74
2021/10/04 02:05:00;;;;;;;0.40;0.20;;;12.10;99.90;;;;;;4993891;28;20399;-73
2021/10/04 02:07:26;;;;;;;0.40;0.20;;;12.00;99.90;;;;;;4992832;28;20470;-71
2021/10/04 02:09:51;;;;;;;0.40;0.20;;;11.70;99.90;;;;;;4993546;28;20418;-73
2021/10/04 02:12:17;;;;;;;0.40;0.20;;;12.30;99.90;;;;;;4993731;28;20383;-73
2021/10/04 02:14:43;;;;;;;0.40;0.20;;;12.00;99.90;;;;;;4993548;28;20933;-72
2021/10/04 02:17:09;;;;;;;0.40;0.20;;;12.00;99.90;;;;;;4993629;28;20824;-72
2021/10/04 02:19:35;;;;;;;0.40;0.25;;;12.20;99.90;;;;;;4993667;28;20477;-72
2021/10/04 02:22:03;;;;;;;0.40;0.20;;;12.10;99.90;;;;;;4993744;28;20532;-70
2021/10/04 02:24:29;;;;;;;0.40;0.30;;;12.00;99.90;;;;;;4993769;28;20394;-70
2021/10/04 02:26:55;;;;;;;0.40;0.20;;;12.00;99.90;;;;;;4993496;28;20413;-72
2021/10/04 02:29:21;;;;;;;0.40;0.20;;;12.00;99.90;;;;;;4976219;28;20417;-72
2021/10/04 02:31:48;;;;;;;0.40;0.30;;;12.00;99.90;;;;;;4993183;28;20474;-72
2021/10/04 02:34:14;;;;;;;0.40;0.20;;;12.40;99.90;;;;;;4993902;28;20425;-71
2021/10/04 02:36:40;;;;;;;0.40;0.20;;;12.10;99.90;;;;;;4993107;28;20379;-70
2021/10/04 02:39:05;;;;;;;0.40;0.20;;;12.20;99.90;;;;;;4993789;28;20866;-71
2021/10/04 02:41:32;;;;;;;0.40;0.30;;;12.00;99.90;;;;;;4992708;28;20557;-73
2021/10/04 02:43:57;;;;;;;0.40;0.20;;;12.30;99.90;;;;;;4993471;28;20389;-72
2021/10/04 02:46:23;;;;;;;0.40;0.20;;;12.30;99.90;;;;;;4976339;28;20396;-71
2021/10/04 02:48:49;;;;;;;0.40;0.20;;;12.10;99.90;;;;;;4973425;28;20388;-72
2021/10/04 02:51:15;;;;;;;0.40;0.20;;;11.90;99.90;;;;;;4973895;28;20865;-72
2021/10/04 02:53:40;;;;;;;0.40;0.20;;;12.40;99.90;;;;;;4973048;28;20393;-73
2021/10/04 02:56:06;;;;;;;0.40;0.30;;;11.90;99.90;;;;;;4974017;28;20480;-72
2021/10/04 02:58:33;;;;;;;0.40;0.20;;;11.80;99.90;;;;;;4973665;28;20745;-72
2021/10/04 03:01:00;;;;;;;0.40;0.20;;;12.00;99.90;;;;;;4974127;28;20456;-72
2021/10/04 03:03:26;;;;;;;0.40;0.20;;;12.00;99.90;;;;;;4973081;28;20761;-72
2021/10/04 03:05:52;;;;;;;0.40;0.20;;;12.30;99.90;;;;;;4973075;28;20391;-73
2021/10/04 03:08:17;;;;;;;0.40;0.20;;;11.90;99.90;;;;;;4973838;28;20397;-73
2021/10/04 03:10:43;;;;;;;0.40;0.20;;;12.00;99.90;;;;;;4973056;28;20849;-73
2021/10/04 03:13:09;;;;;;;0.40;0.20;;;12.10;99.90;;;;;;4973533;28;20392;-73
2021/10/04 03:15:34;;;;;;;0.40;0.30;;;12.00;99.90;;;;;;4972952;28;20428;-73
2021/10/04 03:18:00;;;;;;;0.40;0.30;;;12.00;99.90;;;;;;4973130;28;20397;-73
2021/10/04 03:20:26;;;;;;;0.40;0.20;;;11.80;99.90;;;;;;4973255;28;20384;-73
2021/10/04 03:22:54;;;;;;;6.00;0.50;;;11.90;99.90;;;;;;4972637;28;20423;-73
2021/10/04 03:25:20;;;;;;;0.40;0.30;;;12.00;99.90;;;;;;4973305;28;20873;-74
2021/10/04 03:27:46;;;;;;;0.40;0.20;;;11.90;99.90;;;;;;4954874;28;20443;-73
2021/10/04 03:30:12;;;;;;;0.40;0.20;;;11.90;99.90;;;;;;4973320;28;20392;-73
2021/10/04 03:32:38;;;;;;;0.40;0.20;;;11.90;99.90;;;;;;4972529;28;20528;-74
2021/10/04 03:35:05;;;;;;;0.40;0.20;;;12.60;99.90;;;;;;4973025;28;20388;-74
2021/10/04 03:37:31;;;;;;;0.40;0.20;;;12.00;99.90;;;;;;4973156;28;20395;-74
2021/10/04 03:39:57;;;;;;;0.40;0.20;;;12.30;99.90;;;;;;4972724;28;20380;-74
2021/10/04 03:42:22;;;;;;;0.40;0.20;;;12.00;99.90;;;;;;4973072;28;20434;-74
2021/10/04 03:44:48;;;;;;;0.40;0.20;;;12.00;99.90;;;;;;4976646;28;20399;-74
2021/10/04 03:47:14;;;;;;;0.40;0.20;;;12.00;99.90;;;;;;4992497;28;20382;-73
2021/10/04 03:49:39;;;;;;;0.40;0.20;;;11.90;99.90;;;;;;4991629;28;20692;-74
2021/10/04 03:52:06;;;;;;;0.40;0.20;;;12.20;99.90;;;;;;4992389;28;20473;-73
2021/10/04 03:54:31;;;;;;;0.40;0.20;;;12.00;99.90;;;;;;4992051;28;20474;-73
2021/10/04 03:56:57;;;;;;;0.40;0.20;;;11.90;99.90;;;;;;4991878;28;20783;-73
2021/10/04 03:59:23;;;;;;;0.40;0.20;;;12.10;99.90;;;;;;4992088;28;20382;-73
2021/10/04 04:01:48;;;;;;;0.50;0.50;;;12.00;99.90;;;;;;4991677;28;20410;-73
2021/10/04 04:04:14;;;;;;;0.40;0.30;;;12.00;99.90;;;;;;4992224;28;20426;-73
2021/10/04 04:06:41;;;;;;;0.40;0.20;;;11.90;99.90;;;;;;4991862;28;20370;-73
2021/10/04 04:09:07;;;;;;;0.40;0.20;;;12.00;99.90;;;;;;4992423;28;20418;-73
2021/10/04 04:11:32;;;;;;;0.40;0.30;;;12.00;99.90;;;;;;4992749;28;20394;-73
2021/10/04 04:13:58;;;;;;;0.40;0.20;;;11.90;99.90;;;;;;4991802;28;20386;-73
2021/10/04 04:16:24;;;;;;;0.40;0.23;;;12.00;99.90;;;;;;4992181;28;20866;-73
2021/10/04 04:18:49;;;;;;;0.40;0.30;;;12.10;99.90;;;;;;4991360;28;20390;-73
2021/10/04 04:21:15;;;;;;;0.40;0.20;;;11.90;99.90;;;;;;4992489;28;20401;-73
2021/10/04 04:23:40;;;;;;;0.40;0.20;;;12.70;99.90;;;;;;4991561;28;20389;-73
2021/10/04 04:26:06;;;;;;;0.40;0.20;;;11.90;99.90;;;;;;4991942;28;20402;-73
2021/10/04 04:28:33;;;;;;;0.40;0.20;;;11.90;99.90;;;;;;4987150;28;20416;-73
2021/10/04 04:30:58;;;;;;;0.40;0.20;;;11.90;99.90;;;;;;4970968;28;20471;-73
2021/10/04 04:33:24;;;;;;;0.40;0.20;;;12.00;99.90;;;;;;4972369;28;20387;-73
2021/10/04 04:35:50;;;;;;;0.40;0.30;;;11.90;99.90;;;;;;4970855;28;20749;-73
2021/10/04 04:38:16;;;;;;;0.40;0.20;;;11.90;99.90;;;;;;4971743;28;20467;-73
2021/10/04 04:40:42;;;;;;;0.40;0.20;;;12.00;99.90;;;;;;4971966;28;20439;-73
2021/10/04 04:43:08;;;;;;;0.40;0.20;;;11.90;99.90;;;;;;4972612;28;20889;-73
2021/10/04 04:45:33;;;;;;;0.40;0.30;;;11.80;99.90;;;;;;4961824;28;20397;-73
2021/10/04 04:47:59;;;;;;;0.40;0.20;;;11.90;99.90;;;;;;4952780;28;20389;-73
2021/10/04 04:50:25;;;;;;;0.40;0.20;;;11.90;99.90;;;;;;4953219;28;20452;-73
2021/10/04 04:52:51;;;;;;;0.40;0.20;;;12.00;99.90;;;;;;4952603;28;20398;-73
2021/10/04 04:55:17;;;;;;;0.40;0.30;;;11.90;99.90;;;;;;4953111;28;20469;-73
2021/10/04 04:57:43;;;;;;;0.40;0.20;;;11.80;99.90;;;;;;4952842;29;20468;-73
2021/10/04 05:00:11;;;;;;;0.40;0.20;;;12.00;99.90;;;;;;4953262;28;20390;-73
2021/10/04 05:02:37;;;;;;;0.40;0.30;;;11.80;99.90;;;;;;4953167;28;20413;-74
2021/10/04 05:05:09;;;;;;;0.40;0.20;;;11.80;99.90;;;;;;4952597;28;20742;-74
2021/10/04 05:07:35;;;;;;;0.40;0.20;;;11.80;99.90;;;;;;4953114;28;20466;-73
2021/10/04 05:10:01;;;;;;;0.40;0.20;;;11.90;99.90;;;;;;4952446;28;20476;-73
2021/10/04 05:12:27;;;;;;;0.40;0.20;;;11.70;99.90;;;;;;4953124;29;20840;-73
2021/10/04 05:14:52;;;;;;;0.40;0.20;;;11.70;99.90;;;;;;4952432;28;20791;-74
2021/10/04 05:17:18;;;;;;;0.40;0.20;;;11.70;99.90;;;;;;4952743;28;20844;-73
2021/10/04 05:19:44;;;;;;;0.40;0.20;;;11.70;99.90;;;;;;4952298;29;20400;-72
2021/10/04 05:22:10;;;;;;;0.40;0.20;;;11.70;99.90;;;;;;4952910;29;20405;-73
2021/10/04 05:24:35;;;;;;;0.40;0.30;;;11.80;99.90;;;;;;4952693;28;20386;-74
2021/10/04 05:27:01;;;;;;;0.40;0.20;;;11.70;99.90;;;;;;4957376;28;20510;-74
2021/10/04 05:29:27;;;;;;;0.40;0.30;;;11.70;99.90;;;;;;4981999;28;20386;-74
2021/10/04 05:31:53;;;;;;;0.40;0.20;;;11.80;99.90;;;;;;4994389;28;20783;-74
2021/10/04 05:34:19;;;;;;;0.40;0.20;;;11.70;99.90;;;;;;4995157;28;20378;-74
2021/10/04 05:36:45;;;;;;;0.40;0.20;;;11.60;99.90;;;;;;4994184;28;20387;-74
2021/10/04 05:39:11;;;;;;;0.40;0.20;;;11.70;99.90;;;;;;4995201;28;20472;-74
2021/10/04 05:41:36;;;;;;;0.40;0.20;;;11.70;99.90;;;;;;4995021;28;20410;-74
2021/10/04 05:44:02;;;;;;;0.40;0.20;;;11.80;99.90;;;;;;4994803;28;20511;-74
2021/10/04 05:46:28;;;;;;;0.40;0.30;;;11.80;99.90;;;;;;4977164;28;20392;-75
2021/10/04 05:48:54;;;;;;;0.40;0.30;;;11.80;99.90;;;;;;4974978;28;20443;-75
2021/10/04 05:51:20;;;;;;;0.40;0.30;;;11.80;99.90;;;;;;4975486;28;20888;-75
2021/10/04 05:53:46;;;;;;;0.40;0.20;;;11.90;99.90;;;;;;4974655;28;20921;-75
2021/10/04 05:56:12;;;;;;;0.40;0.20;;;12.20;99.90;;;;;;4975085;28;20400;-75
2021/10/04 05:58:38;;;;;;;0.40;0.20;;;11.80;99.90;;;;;;4975728;28;20793;-74
2021/10/04 06:01:04;;;;;;;0.40;0.20;;;11.80;99.90;;;;;;4974568;28;20387;-75
2021/10/04 06:03:30;;;;;;;0.40;0.30;;;11.50;99.90;;;;;;4974998;28;20560;-74
2021/10/04 06:05:56;;;;;;;0.40;0.30;;;11.80;99.90;;;;;;4974657;28;20389;-75
2021/10/04 06:08:21;;;;;;;0.40;0.20;;;11.80;99.90;;;;;;4975487;28;20512;-73
2021/10/04 06:10:47;;;;;;;0.40;0.20;;;11.70;99.90;;;;;;4974310;28;20924;-73
2021/10/04 06:13:13;;;;;;;0.40;0.30;;;11.70;99.90;;;;;;4975014;28;20427;-72
2021/10/04 06:15:38;;;;;;;0.40;0.30;;;11.80;99.90;;;;;;4974718;28;20387;-72
2021/10/04 06:18:04;;;;;;;0.40;0.30;;;11.90;99.90;;;;;;4974540;28;20392;-73
2021/10/04 06:20:30;;;;;;;0.40;0.20;;;12.00;99.90;;;;;;4974501;28;20416;-72
2021/10/04 06:22:56;;;;;;;0.40;0.20;;;11.90;99.90;;;;;;4974206;28;20412;-71
2021/10/04 06:25:22;;;;;;;0.40;0.20;;;11.90;99.90;;;;;;4975130;28;20454;-71
2021/10/04 06:27:50;;;;;;;0.40;0.20;;;11.80;99.90;;;;;;4973721;28;20511;-72
2021/10/04 06:30:16;;;;;;;0.40;0.20;;;12.00;99.90;;;;;;4974463;28;20384;-71
2021/10/04 06:32:42;;;;;;;0.40;0.20;;;12.50;99.90;;;;;;4974377;28;20391;-71
2021/10/04 06:35:08;;;;;;;0.40;0.20;;;12.10;99.90;;;;;;4973262;28;20916;-73
2021/10/04 06:37:34;;;;;;;0.40;0.30;;;11.80;99.90;;;;;;4974483;28;20434;-73
2021/10/04 06:40:00;;;;;;;0.40;0.20;;;11.70;99.90;;;;;;4974136;28;20388;-72
2021/10/04 06:42:26;;;;;;;0.40;0.20;;;11.80;99.90;;;;;;4974528;28;20415;-71
2021/10/04 06:44:53;;;;;;;0.40;0.30;;;11.80;99.90;;;;;;4978352;28;20390;-72
2021/10/04 06:47:18;;;;;;;0.40;0.20;;;11.80;99.90;;;;;;4994034;28;20727;-72
2021/10/04 06:49:44;;;;;;;0.40;0.30;;;11.80;99.90;;;;;;4976381;28;20398;-72
2021/10/04 06:52:10;;;;;;;0.40;0.30;;;11.80;99.90;;;;;;4993505;28;20391;-71
2021/10/04 06:54:36;;;;;;;0.40;0.20;;;12.00;99.90;;;;;;4993818;28;20387;-72
2021/10/04 06:57:02;;;;;;;0.40;0.30;;;11.80;99.90;;;;;;4992822;28;20418;-73
2021/10/04 06:59:27;;;;;;;0.40;0.30;;;11.80;99.90;;;;;;4993875;28;20806;-72
2021/10/04 07:01:53;;;;;;;0.40;0.25;;;12.20;99.90;;;;;;4992873;28;20419;-71
2021/10/04 07:04:19;;;;;;;0.40;0.30;;;11.80;99.90;;;;;;4993448;28;20398;-72
2021/10/04 07:06:44;;;;;;;0.40;0.30;;;11.80;99.90;;;;;;4993832;28;20739;-72
2021/10/04 07:09:10;;;;;;;0.40;0.30;;;11.80;99.90;;;;;;4992936;28;20383;-72
2021/10/04 07:11:36;;;;;;;0.40;0.20;;;11.70;99.90;;;;;;4976095;28;20397;-72
2021/10/04 07:14:01;;;;;;;0.40;0.30;;;11.70;99.90;;;;;;4992836;28;20429;-72
2021/10/04 07:16:27;;;;;;;0.40;0.20;;;12.10;99.90;;;;;;4993040;28;20414;-73
2021/10/04 07:18:53;;;;;;;0.40;0.30;;;11.60;99.90;;;;;;4992809;28;20390;-73
2021/10/04 07:21:19;;;;;;;0.40;0.30;;;11.70;99.90;;;;;;4993101;28;20473;-72
2021/10/04 07:23:45;;;;;;;0.40;0.20;;;12.00;99.90;;;;;;4975872;28;20406;-72
2021/10/04 07:26:13;;;;;;;0.40;0.30;;;11.70;99.90;;;;;;4992182;28;20410;-72
2021/10/04 07:28:39;;;;;;;0.40;0.20;;;11.70;99.90;;;;;;4992711;28;20443;-72
2021/10/04 07:31:04;;;;;;;0.40;0.20;;;11.80;99.90;;;;;;4992431;28;20379;-72
2021/10/04 07:33:30;;;;;;;0.40;0.30;;;11.90;99.90;;;;;;4993133;28;20394;-72
2021/10/04 07:35:57;;;;;;;0.40;0.30;;;11.80;99.90;;;;;;4992223;28;20476;-73
2021/10/04 07:38:24;;;;;;;0.40;0.20;;;11.90;99.90;;;;;;4992630;28;20879;-72
2021/10/04 07:40:50;;;;;;;0.40;0.20;;;11.70;99.90;;;;;;4992231;28;20375;-74
2021/10/04 07:43:16;;;;;;;0.40;0.20;;;12.10;99.90;;;;;;4992876;28;20406;-73
2021/10/04 07:45:42;;;;;;;0.40;0.20;;;11.80;99.90;;;;;;4981441;28;20408;-73
2021/10/04 07:48:07;;;;;;;0.40;0.20;;;11.80;99.90;;;;;;4972806;28;20384;-73
2021/10/04 07:50:34;;;;;;;0.40;0.20;;;11.90;99.90;;;;;;4972814;28;20384;-73
2021/10/04 07:53:00;;;;;;;0.40;0.20;;;12.10;99.90;;;;;;4972270;28;20397;-73
2021/10/04 07:55:26;;;;;;;0.40;0.20;;;12.20;99.90;;;;;;4973603;28;20750;-73
2021/10/04 07:57:52;;;;;;;0.40;0.20;;;11.80;99.90;;;;;;4972517;28;20400;-71
2021/10/04 08:00:20;;;;;;;0.40;0.20;;;11.80;99.90;;;;;;4973220;28;20399;-72
2021/10/04 08:02:46;;;;;;;0.40;0.20;;;11.70;99.90;;;;;;4972981;28;20403;-72
2021/10/04 08:05:13;;;;;;;0.40;0.20;;;11.60;99.90;;;;;;4955199;28;20821;-72
2021/10/04 08:07:39;;;;;;;0.40;0.20;;;11.50;99.90;;;;;;4973001;28;20392;-72
2021/10/04 08:10:07;;;;;;;0.40;0.20;;;11.80;99.90;;;;;;4972431;28;20388;-72
2021/10/04 08:12:33;;;;;;;0.40;0.20;;;11.60;99.90;;;;;;4972882;28;20407;-72
2021/10/04 08:14:58;;;;;;;0.40;0.20;;;11.80;99.90;;;;;;4972395;28;20850;-72
2021/10/04 08:17:24;;;;;;;0.40;0.20;;;12.70;99.90;;;;;;4972565;28;20419;-72
2021/10/04 08:19:51;;;;;;;0.40;0.20;;;12.10;99.90;;;;;;4972798;28;20395;-72
2021/10/04 08:22:17;;;;;;;0.40;0.22;;;11.70;99.90;;;;;;4972643;28;20423;-72
2021/10/04 08:24:43;;;;;;;0.40;0.30;;;11.70;99.90;;;;;;4972512;28;20414;-72
2021/10/04 08:27:09;;;;;;;0.40;0.20;;;11.70;99.90;;;;;;4972046;28;20490;-72
2021/10/04 08:29:35;;;;;;;0.40;0.20;;;11.70;99.90;;;;;;4972772;28;20387;-72
2021/10/04 08:32:02;;;;;;;0.40;0.30;;;11.70;99.90;;;;;;4972030;28;20784;-73
2021/10/04 08:34:28;;;;;;;0.40;0.20;;;11.80;99.90;;;;;;4972583;28;20494;-72
2021/10/04 08:36:53;;;;;;;0.40;0.20;;;11.90;99.90;;;;;;4972044;28;20411;-71
2021/10/04 08:39:19;;;;;;;0.40;0.30;;;12.00;99.90;;;;;;4972905;28;20388;-72
2021/10/04 08:41:45;;;;;;;0.40;0.30;;;11.90;99.90;;;;;;4972379;28;20412;-72
2021/10/04 08:44:13;;;;;;;0.40;0.30;;;12.00;99.90;;;;;;4971953;28;20394;-72
2021/10/04 08:46:41;;;;;;;0.40;0.30;;;12.00;99.90;;;;;;4991465;28;20433;-72
2021/10/04 08:49:07;;;;;;;0.40;0.30;;;12.20;99.90;;;;;;4991404;28;20387;-72
2021/10/04 08:51:34;;;;;;;0.40;0.20;;;12.10;99.90;;;;;;4991896;28;20431;-73
2021/10/04 08:54:01;;;;;;;0.40;0.20;;;12.00;99.90;;;;;;4991318;28;20378;-74
2021/10/04 08:56:26;;;;;;;0.40;0.30;;;12.10;99.90;;;;;;4991663;28;20437;-74
2021/10/04 08:58:52;;;;;;;0.40;0.30;;;12.10;99.90;;;;;;4991765;28;20422;-74
2021/10/04 09:01:21;;;;;;;0.40;0.20;;;12.20;99.90;;;;;;4991541;28;20383;-74
2021/10/04 09:03:58;;;;;;;0.40;0.20;;;11.90;99.90;;;;;;4995806;28;20885;-72
2021/10/04 09:06:30;;;;;;;0.60;0.60;;;12.10;99.90;;;;;;4995795;28;20390;-72
2021/10/04 09:09:00;;;;;;;0.40;0.20;;;12.10;99.90;;;;;;4994994;28;20392;-72
2021/10/04 09:11:36;;;;;;;0.40;0.20;;;12.60;99.90;;;;;;4995613;28;20458;-72
2021/10/04 09:14:09;;;;;;;0.40;0.30;;;12.20;99.90;;;;;;4995102;28;20477;-72
2021/10/04 09:16:49;;;;;;;0.40;0.30;;;12.30;99.90;;;;;;4995670;28;20393;-73
2021/10/04 09:19:24;;;;;;;0.40;0.20;;;12.20;99.90;;;;;;4994919;28;20398;-73
2021/10/04 09:22:16;;;;;;;0.40;0.20;;;12.20;99.90;;;;;;4995567;28;20414;-71
2021/10/04 09:24:59;;;;;;;0.40;0.20;;;12.20;99.90;;;;;;4995483;28;20394;-72
2021/10/04 09:27:40;;;;;;;0.40;0.20;;;12.30;99.90;;;;;;4995198;28;20433;-74
2021/10/04 09:30:12;;;;;;;0.40;0.20;;;12.40;99.90;;;;;;4994889;28;20913;-72
2021/10/04 09:32:40;;;;;;;0.40;0.20;;;12.40;99.90;;;;;;4995429;28;20391;-72
2021/10/04 09:35:23;;;;;;;0.40;0.20;;;12.50;99.90;;;;;;4994663;28;20382;-72
2021/10/04 09:37:57;;;;;;;0.40;0.20;;;12.40;99.90;;;;;;4995190;28;20894;-73
2021/10/04 09:40:41;;;;;;;0.40;0.28;;;12.50;99.90;;;;;;4978019;28;20807;-73
2021/10/04 09:43:27;;;;;;;0.40;0.20;;;12.50;99.90;;;;;;4994370;28;20414;-73
2021/10/04 09:46:10;;;;;;;0.40;0.30;;;12.60;99.90;;;;;;4982140;28;20487;-72
2021/10/04 09:48:36;;;;;;;0.40;0.20;;;12.60;99.90;;;;;;4975264;28;20900;-73
2021/10/04 09:51:15;;;;;;;0.40;0.20;;;12.50;99.90;;;;;;4974626;28;20376;-73
2021/10/04 09:53:40;;;;;;;0.40;0.20;;;12.60;99.90;;;;;;4975502;28;20734;-73
2021/10/04 09:56:06;;;;;;;0.40;0.22;;;12.60;99.90;;;;;;4974876;28;20403;-73
2021/10/04 09:58:33;;;;;;;0.40;0.30;;;12.90;99.90;;;;;;4975006;28;20416;-73
2021/10/04 10:01:04;;;;;;;0.40;0.30;;;12.80;99.90;;;;;;4974725;28;20396;-74
2021/10/04 10:03:38;;;;;;;0.40;0.30;;;12.70;99.90;;;;;;4975300;28;20404;-73
2021/10/04 10:06:04;;;;;;;0.40;0.20;;;12.70;99.90;;;;;;4974761;28;20491;-73
2021/10/04 10:08:30;;;;;;;0.40;0.20;;;12.80;99.90;;;;;;4975091;28;20850;-73
2021/10/04 10:11:00;;;;;;;0.40;0.30;;;12.80;99.90;;;;;;4974890;28;20764;-73
2021/10/04 10:13:27;;;;;;;0.40;0.20;;;13.00;99.90;;;;;;4974491;28;20400;-72
2021/10/04 10:16:16;;;;;;;0.40;0.30;;;12.80;99.90;;;;;;4975103;28;20399;-72
2021/10/04 10:18:47;;;;;;;0.40;0.30;;;12.70;99.90;;;;;;4975019;28;20392;-73
2021/10/04 10:21:25;;;;;;;0.40;0.20;;;12.70;99.90;;;;;;4974447;28;20392;-73
2021/10/04 10:23:54;;;;;;;0.40;0.30;;;12.80;99.90;;;;;;4974959;28;20549;-73
2021/10/04 10:26:41;;;;;;;0.40;0.30;;;12.80;99.90;;;;;;4974024;28;20400;-73
2021/10/04 10:29:16;;;;;;;0.40;0.30;;;12.80;99.90;;;;;;4974183;28;20486;-73
2021/10/04 10:31:51;;;;;;;0.40;0.30;;;12.90;99.90;;;;;;4974741;28;20392;-73
2021/10/04 10:34:39;;;;;;;0.40;0.30;;;12.80;99.90;;;;;;4973781;28;20980;-73
2021/10/04 10:37:28;;;;;;;0.40;0.30;;;12.80;99.90;;;;;;4974080;28;20411;-74
2021/10/04 10:40:00;;;;;;;0.40;0.20;;;12.90;99.90;;;;;;4947313;28;20395;-74
2021/10/04 10:42:46;;;;;;;0.40;0.30;;;12.30;99.90;;;;;;4974472;28;20754;-74
2021/10/04 10:45:14;;;;;;;0.40;0.30;;;12.80;99.90;;;;;;4981370;28;20398;-74
2021/10/04 10:47:39;;;;;;;0.40;0.30;;;12.70;99.90;;;;;;4993874;28;20397;-74
2021/10/04 10:50:15;;;;;;;0.40;0.30;;;12.50;99.90;;;;;;4992904;28;20386;-74
2021/10/04 10:52:46;;;;;;;0.40;0.20;;;12.90;99.90;;;;;;4993631;28;20705;-73
2021/10/04 10:55:21;;;;;;;0.40;0.30;;;12.70;99.90;;;;;;4993178;28;20426;-73
2021/10/04 10:57:50;;;;;;;0.40;0.30;;;12.80;99.90;;;;;;4993738;28;20747;-74
2021/10/04 11:00:26;;;;;;;0.40;0.30;;;12.90;99.90;;;;;;4992959;28;20422;-73
2021/10/04 11:03:08;;;;;;;0.40;0.30;;;13.10;99.90;;;;;;4993585;28;20425;-73
2021/10/04 11:05:43;;;;;;;0.40;0.30;;;13.20;99.90;;;;;;4993837;28;20397;-72
2021/10/04 11:08:27;;;;;;;0.40;0.30;;;13.30;99.90;;;;;;4992776;28;20418;-73
2021/10/04 11:10:53;;;;;;;0.40;0.30;;;13.30;99.90;;;;;;4993219;28;20482;-73
2021/10/04 11:13:30;;;;;;;0.40;0.20;;;13.00;99.90;;;;;;4992737;28;20499;-72
2021/10/04 11:16:20;;;;;;;0.40;0.20;;;13.00;99.90;;;;;;4993581;28;20394;-72
2021/10/04 11:18:47;;;;;;;0.40;0.30;;;13.20;99.90;;;;;;4992906;28;20875;-73
2021/10/04 11:21:22;;;;;;;0.40;0.30;;;13.20;99.90;;;;;;4992724;28;20796;-72
2021/10/04 11:23:53;;;;;;;0.40;0.30;;;13.00;99.90;;;;;;4993134;28;20759;-73
2021/10/04 11:26:22;;;;;;;0.40;0.30;;;13.10;99.90;;;;;;4991851;28;20410;-73
2021/10/04 11:28:52;;;;;;;0.40;0.30;;;13.10;99.90;;;;;;4992602;28;20414;-72
2021/10/04 11:31:24;;;;;;;0.40;0.30;;;13.10;99.90;;;;;;4992553;28;20709;-72
2021/10/04 11:33:55;;;;;;;0.40;0.30;;;12.90;99.90;;;;;;4993050;28;20494;-72
2021/10/04 11:36:24;;;;;;;0.40;0.20;;;12.90;99.90;;;;;;4992143;28;20415;-72
2021/10/04 11:38:54;;;;;;;0.40;0.30;;;13.00;99.90;;;;;;4992924;28;20421;-73
2021/10/04 11:41:35;;;;;;;0.40;0.30;;;12.90;99.90;;;;;;4976607;28;20483;-72
2021/10/04 11:44:09;;;;;;;0.40;0.30;;;13.00;99.90;;;;;;4973146;28;20399;-72
2021/10/04 11:46:39;;;;;;;0.40;0.20;;;13.10;99.90;;;;;;4991967;28;20386;-72
2021/10/04 11:49:18;;;;;;;0.40;0.20;;;13.10;99.90;;;;;;4992211;28;20765;-73
2021/10/04 11:51:48;;;;;;;0.40;0.20;;;13.00;99.90;;;;;;4990240;28;20847;-74
2021/10/04 11:54:33;;;;;;;0.40;0.20;;;13.00;99.90;;;;;;4989031;28;20449;-73
2021/10/04 11:56:59;;;;;;;0.40;0.30;;;12.80;99.90;;;;;;4992649;28;20398;-74
2021/10/04 11:59:26;;;;;;;0.40;0.30;;;12.80;99.90;;;;;;4991231;28;20378;-73
2021/10/04 12:01:52;;;;;;;0.40;0.20;;;12.70;99.90;;;;;;4992364;28;20414;-72
2021/10/04 12:04:21;;;;;;;0.40;0.30;;;12.90;99.90;;;;;;4989499;28;20437;-73
2021/10/04 12:06:47;;;;;;;0.40;0.30;;;13.00;99.90;;;;;;4992390;28;20424;-73
2021/10/04 12:09:21;;;;;;;0.90;0.70;;;12.70;99.90;;;;;;4991546;28;20482;-73
2021/10/04 12:11:58;;;;;;;0.40;0.30;;;12.80;99.90;;;;;;4968801;28;20493;-72
2021/10/04 12:14:26;;;;;;;0.40;0.20;;;12.80;99.90;;;;;;4992025;28;20394;-74
2021/10/04 12:16:58;;;;;;;0.40;0.30;;;12.90;99.90;;;;;;4991858;28;20386;-74
2021/10/04 12:19:24;;;;;;;0.40;0.20;;;12.80;99.90;;;;;;4990741;28;20486;-74
2021/10/04 12:21:51;;;;;;;0.40;0.20;;;12.90;99.90;;;;;;4984021;28;20425;-73
2021/10/04 12:24:25;;;;;;;0.40;0.30;;;12.90;99.90;;;;;;4984053;28;20398;-74
2021/10/04 12:26:59;;;;;;;0.40;0.30;;;13.00;99.90;;;;;;4983967;28;20812;-74
2021/10/04 12:29:42;;;;;;;0.40;0.20;;;13.20;99.90;;;;;;4982747;28;20407;-73
2021/10/04 12:32:23;;;;;;;0.40;0.20;;;13.10;99.90;;;;;;4980829;28;20403;-74
2021/10/04 12:35:09;;;;;;;0.40;0.20;;;12.90;99.90;;;;;;4981203;28;20402;-74
2021/10/04 12:37:43;;;;;;;0.40;0.20;;;12.80;99.90;;;;;;4964062;28;20915;-74
2021/10/04 12:40:18;;;;;;;0.40;0.20;;;12.70;99.90;;;;;;4978897;28;20446;-76
2021/10/04 12:42:44;;;;;;;0.40;0.20;;;12.90;99.90;;;;;;4972581;28;20582;-76
2021/10/04 12:45:12;;;;;;;0.40;0.30;;;12.90;99.90;;;;;;4979000;28;20386;-76
2021/10/04 12:47:56;;;;;;;0.40;0.30;;;12.70;99.90;;;;;;4992076;28;20382;-77
2021/10/04 12:50:25;;;;;;;0.40;0.20;;;13.00;99.90;;;;;;4991337;28;20728;-75
2021/10/04 12:52:53;;;;;;;0.40;0.20;;;12.90;99.90;;;;;;4991750;28;20386;-77